createdAt,value
2023-04-15T00:00:28.686Z,30.07
2023-04-15T00:01:28.692Z,29.90
2023-04-15T00:02:28.805Z,28.95
2023-04-15T00:03:28.984Z,29.39
2023-04-15T00:04:28.902Z,29.63
2023-04-15T00:05:28.671Z,29.26
2023-04-15T00:06:28.638Z,28.28
2023-04-15T00:07:28.633Z,27.84
2023-04-15T00:08:28.622Z,28.86
2023-04-15T00:09:28.625Z,28.65
2023-04-15T00:10:28.655Z,30.25
2023-04-15T00:11:28.673Z,29.33
2023-04-15T00:12:28.577Z,30.77
2023-04-15T00:13:28.591Z,30.25
2023-04-15T00:14:28.661Z,27.39
2023-04-15T00:15:28.690Z,27.22
2023-04-15T00:16:28.761Z,29.48
2023-04-15T00:17:28.817Z,28.98
2023-04-15T00:18:28.799Z,30.04
2023-04-15T00:19:28.835Z,29.09
2023-04-15T00:20:28.869Z,29.35
2023-04-15T00:21:28.898Z,29.15
2023-04-15T00:22:28.952Z,29.45
2023-04-15T00:23:29.004Z,29.76
2023-04-15T00:24:29.031Z,29.35
2023-04-15T00:25:29.080Z,29.69
2023-04-15T00:26:29.085Z,28.37
2023-04-15T00:27:29.159Z,29.53
2023-04-15T00:28:29.154Z,28.16
2023-04-15T00:29:29.208Z,28.27
2023-04-15T00:30:29.247Z,28.77
2023-04-15T00:31:29.362Z,28.41
2023-04-15T00:32:29.329Z,28.66
2023-04-15T00:33:29.342Z,28.88
2023-04-15T00:34:29.392Z,29.64
2023-04-15T00:35:29.435Z,27.60
2023-04-15T00:36:29.478Z,26.88
2023-04-15T00:37:29.508Z,28.13
2023-04-15T00:38:29.542Z,28.16
2023-04-15T00:39:29.997Z,29.14
2023-04-15T00:40:29.624Z,27.85
2023-04-15T00:41:29.648Z,29.09
2023-04-15T00:42:29.739Z,27.86
2023-04-15T00:43:29.698Z,27.83
2023-04-15T00:44:29.788Z,27.95
2023-04-15T00:45:29.799Z,29.35
2023-04-15T00:46:29.794Z,29.09
2023-04-15T00:47:29.936Z,29.14
2023-04-15T00:48:29.898Z,29.78
2023-04-15T00:49:29.923Z,29.69
2023-04-15T00:50:29.981Z,28.24
2023-04-15T00:51:29.964Z,28.35
2023-04-15T00:52:30.015Z,29.35
2023-04-15T00:53:30.028Z,28.77
2023-04-15T00:54:30.096Z,29.31
2023-04-15T00:55:30.123Z,29.07
2023-04-15T00:56:30.179Z,28.70
2023-04-15T00:57:30.201Z,28.16
2023-04-15T00:58:30.226Z,29.21
2023-04-15T00:59:30.267Z,29.20
2023-04-15T01:00:30.334Z,28.41
2023-04-15T01:01:30.416Z,27.55
2023-04-15T01:02:30.446Z,29.41
2023-04-15T01:03:30.626Z,28.22
2023-04-15T01:04:30.691Z,29.31
2023-04-15T01:05:30.516Z,29.70
2023-04-15T01:06:30.558Z,29.88
2023-04-15T01:07:30.592Z,30.04
2023-04-15T01:08:30.610Z,30.98
2023-04-15T01:09:30.637Z,30.64
2023-04-15T01:10:30.692Z,30.81
2023-04-15T01:11:30.759Z,30.64
2023-04-15T01:12:30.782Z,29.43
2023-04-15T01:13:30.790Z,28.85
2023-04-15T01:14:30.823Z,29.78
2023-04-15T01:15:30.879Z,29.79
2023-04-15T01:16:30.931Z,29.45
2023-04-15T01:17:30.955Z,29.08
2023-04-15T01:18:30.981Z,28.98
2023-04-15T01:19:31.052Z,27.43
2023-04-15T01:20:31.049Z,27.64
2023-04-15T01:21:31.108Z,27.01
2023-04-15T01:22:31.126Z,27.03
2023-04-15T01:23:31.170Z,28.11
2023-04-15T01:24:31.252Z,25.49
2023-04-15T01:25:31.273Z,26.39
2023-04-15T01:26:31.262Z,27.44
2023-04-15T01:27:31.328Z,26.13
2023-04-15T01:28:31.341Z,28.12
2023-04-15T01:29:31.412Z,27.77
2023-04-15T01:30:31.437Z,27.76
2023-04-15T01:31:31.526Z,28.41
2023-04-15T01:32:31.624Z,27.76
2023-04-15T01:33:31.576Z,28.02
2023-04-15T01:34:33.003Z,29.13
2023-04-15T01:35:31.874Z,29.34
2023-04-15T01:36:31.879Z,28.87
2023-04-15T01:37:31.956Z,28.43
2023-04-15T01:38:31.949Z,28.68
2023-04-15T01:39:32.073Z,28.94
2023-04-15T01:40:32.065Z,28.92
2023-04-15T01:41:32.105Z,29.03
2023-04-15T01:42:32.121Z,29.87
2023-04-15T01:43:32.124Z,29.70
2023-04-15T01:44:32.199Z,29.96
2023-04-15T01:45:32.252Z,29.08
2023-04-15T01:46:32.338Z,29.52
2023-04-15T01:47:32.316Z,28.64
2023-04-15T01:48:32.371Z,28.53
2023-04-15T01:49:32.408Z,29.14
2023-04-15T01:50:32.397Z,28.81
2023-04-15T01:51:32.462Z,28.68
2023-04-15T01:52:32.512Z,27.28
2023-04-15T01:53:32.530Z,28.14
2023-04-15T01:54:32.573Z,28.10
2023-04-15T01:55:32.606Z,28.02
2023-04-15T01:56:32.614Z,27.29
2023-04-15T01:57:32.695Z,26.84
2023-04-15T01:58:32.705Z,26.64
2023-04-15T01:59:32.730Z,26.54
2023-04-15T02:00:32.777Z,27.40
2023-04-15T02:01:32.878Z,26.85
2023-04-15T02:02:32.901Z,27.09
2023-04-15T02:03:32.986Z,27.24
2023-04-15T02:04:32.907Z,26.50
2023-04-15T02:05:32.941Z,26.39
2023-04-15T02:06:32.978Z,26.63
2023-04-15T02:07:33.025Z,26.20
2023-04-15T02:08:33.059Z,26.70
2023-04-15T02:09:33.096Z,26.31
2023-04-15T02:10:33.132Z,25.71
2023-04-15T02:11:33.127Z,25.28
2023-04-15T02:12:33.178Z,25.07
2023-04-15T02:13:33.213Z,25.73
2023-04-15T02:14:33.231Z,26.33
2023-04-15T02:15:33.264Z,26.38
2023-04-15T02:16:33.316Z,27.03
2023-04-15T02:17:33.357Z,27.76
2023-04-15T02:18:33.390Z,26.77
2023-04-15T02:19:33.457Z,26.80
2023-04-15T02:20:33.446Z,26.94
2023-04-15T02:21:33.501Z,27.19
2023-04-15T02:22:33.532Z,25.98
2023-04-15T02:23:33.543Z,27.25
2023-04-15T02:24:33.569Z,27.91
2023-04-15T02:25:33.633Z,27.85
2023-04-15T02:26:33.635Z,27.07
2023-04-15T02:27:33.678Z,27.09
2023-04-15T02:28:33.725Z,27.65
2023-04-15T02:29:33.758Z,27.51
2023-04-15T02:30:33.789Z,27.69
2023-04-15T02:31:33.888Z,27.32
2023-04-15T02:32:33.973Z,26.99
2023-04-15T02:33:33.927Z,27.68
2023-04-15T02:34:33.951Z,27.91
2023-04-15T02:35:34.019Z,27.85
2023-04-15T02:36:34.019Z,28.71
2023-04-15T02:37:34.075Z,27.78
2023-04-15T02:38:34.092Z,26.88
2023-04-15T02:39:34.138Z,28.51
2023-04-15T02:40:34.175Z,29.36
2023-04-15T02:41:34.209Z,28.75
2023-04-15T02:42:34.262Z,29.26
2023-04-15T02:43:34.326Z,28.96
2023-04-15T02:44:34.322Z,27.80
2023-04-15T02:45:34.515Z,27.23
2023-04-15T02:46:34.413Z,27.32
2023-04-15T02:47:34.475Z,27.50
2023-04-15T02:48:34.495Z,27.94
2023-04-15T02:49:34.522Z,26.87
2023-04-15T02:50:34.544Z,26.96
2023-04-15T02:51:34.569Z,27.40
2023-04-15T02:52:34.617Z,25.69
2023-04-15T02:53:34.656Z,26.70
2023-04-15T02:54:34.707Z,27.57
2023-04-15T02:55:34.716Z,26.80
2023-04-15T02:56:34.746Z,27.01
2023-04-15T02:57:34.795Z,27.00
2023-04-15T02:58:34.815Z,26.85
2023-04-15T02:59:34.848Z,27.81
2023-04-15T03:00:34.891Z,27.27
2023-04-15T03:01:34.975Z,27.65
2023-04-15T03:02:35.026Z,28.23
2023-04-15T03:03:35.033Z,27.24
2023-04-15T03:04:35.054Z,26.55
2023-04-15T03:05:35.064Z,27.58
2023-04-15T03:06:35.130Z,26.08
2023-04-15T03:07:35.162Z,27.86
2023-04-15T03:08:35.207Z,27.52
2023-04-15T03:09:35.262Z,27.99
2023-04-15T03:10:35.288Z,26.81
2023-04-15T03:11:36.466Z,27.57
2023-04-15T03:12:35.345Z,26.98
2023-04-15T03:13:35.397Z,26.43
2023-04-15T03:14:35.443Z,26.75
2023-04-15T03:15:35.483Z,27.31
2023-04-15T03:16:35.509Z,26.41
2023-04-15T03:17:35.564Z,26.88
2023-04-15T03:18:35.584Z,27.84
2023-04-15T03:19:35.661Z,27.40
2023-04-15T03:20:35.737Z,27.19
2023-04-15T03:21:35.717Z,27.50
2023-04-15T03:22:35.740Z,26.08
2023-04-15T03:23:35.820Z,26.87
2023-04-15T03:24:35.831Z,26.17
2023-04-15T03:25:35.917Z,27.56
2023-04-15T03:26:35.912Z,27.01
2023-04-15T03:27:36.071Z,26.88
2023-04-15T03:28:36.018Z,27.11
2023-04-15T03:29:36.037Z,26.43
2023-04-15T03:30:36.060Z,25.95
2023-04-15T03:31:36.187Z,27.49
2023-04-15T03:32:36.175Z,26.96
2023-04-15T03:33:36.180Z,26.37
2023-04-15T03:34:36.243Z,26.28
2023-04-15T03:35:36.273Z,26.93
2023-04-15T03:36:36.319Z,25.69
2023-04-15T03:37:36.350Z,25.60
2023-04-15T03:38:36.396Z,26.06
2023-04-15T03:39:36.457Z,25.17
2023-04-15T03:40:36.500Z,25.71
2023-04-15T03:41:36.520Z,25.00
2023-04-15T03:42:36.578Z,25.43
2023-04-15T03:43:36.625Z,26.08
2023-04-15T03:44:36.675Z,25.76
2023-04-15T03:45:36.703Z,25.75
2023-04-15T03:46:36.763Z,26.29
2023-04-15T03:47:36.796Z,25.68
2023-04-15T03:48:36.796Z,25.00
2023-04-15T03:49:36.879Z,25.64
2023-04-15T03:50:36.869Z,26.28
2023-04-15T03:51:36.928Z,26.12
2023-04-15T03:52:36.986Z,25.76
2023-04-15T03:53:37.026Z,26.09
2023-04-15T03:54:37.086Z,26.40
2023-04-15T03:55:37.115Z,25.86
2023-04-15T03:56:37.156Z,25.99
2023-04-15T03:57:37.171Z,26.01
2023-04-15T03:58:37.207Z,26.32
2023-04-15T03:59:37.305Z,26.30
2023-04-15T04:00:37.329Z,26.21
2023-04-15T04:01:37.401Z,25.51
2023-04-15T04:02:37.520Z,25.76
2023-04-15T04:03:37.595Z,25.64
2023-04-15T04:04:37.588Z,25.78
2023-04-15T04:05:37.532Z,25.43
2023-04-15T04:06:37.580Z,25.66
2023-04-15T04:07:37.632Z,26.42
2023-04-15T04:08:37.690Z,25.77
2023-04-15T04:09:37.715Z,25.58
2023-04-15T04:10:37.779Z,26.71
2023-04-15T04:11:37.830Z,25.38
2023-04-15T04:12:37.838Z,26.10
2023-04-15T04:13:37.884Z,25.60
2023-04-15T04:14:37.937Z,25.05
2023-04-15T04:15:38.042Z,27.29
2023-04-15T04:16:38.033Z,27.31
2023-04-15T04:17:38.121Z,25.93
2023-04-15T04:18:38.119Z,25.32
2023-04-15T04:19:38.130Z,25.19
2023-04-15T04:20:38.208Z,25.67
2023-04-15T04:21:38.223Z,25.71
2023-04-15T04:22:38.241Z,25.96
2023-04-15T04:23:38.295Z,25.63
2023-04-15T04:24:38.381Z,25.21
2023-04-15T04:25:38.374Z,26.11
2023-04-15T04:26:38.435Z,25.00
2023-04-15T04:27:38.531Z,25.78
2023-04-15T04:28:38.548Z,26.21
2023-04-15T04:29:38.608Z,25.48
2023-04-15T04:30:38.628Z,25.24
2023-04-15T04:31:38.726Z,25.87
2023-04-15T04:32:38.743Z,26.25
2023-04-15T04:33:38.743Z,25.34
2023-04-15T04:34:38.820Z,25.61
2023-04-15T04:35:38.866Z,25.28
2023-04-15T04:36:38.882Z,25.64
2023-04-15T04:37:38.931Z,25.96
2023-04-15T04:38:39.000Z,25.51
2023-04-15T04:39:39.011Z,25.38
2023-04-15T04:40:39.068Z,25.05
2023-04-15T04:41:39.120Z,25.00
2023-04-15T04:42:40.197Z,25.62
2023-04-15T04:43:39.197Z,25.14
2023-04-15T04:44:39.246Z,25.37
2023-04-15T04:45:39.344Z,26.11
2023-04-15T04:46:39.348Z,25.00
2023-04-15T04:47:39.448Z,25.61
2023-04-15T04:48:39.457Z,25.86
2023-04-15T04:49:39.546Z,25.37
2023-04-15T04:50:39.574Z,25.81
2023-04-15T04:51:39.651Z,25.84
2023-04-15T04:52:39.663Z,25.31
2023-04-15T04:53:39.720Z,25.15
2023-04-15T04:54:39.790Z,25.07
2023-04-15T04:55:39.849Z,25.46
2023-04-15T04:56:39.888Z,25.00
2023-04-15T04:57:39.928Z,26.20
2023-04-15T04:58:40.020Z,27.32
2023-04-15T04:59:40.094Z,27.17
2023-04-15T05:00:40.094Z,27.17
2023-04-15T05:01:40.252Z,26.97
2023-04-15T05:02:40.293Z,27.28
2023-04-15T05:03:40.275Z,27.32
2023-04-15T05:04:40.325Z,27.81
2023-04-15T05:05:40.347Z,28.98
2023-04-15T05:06:40.400Z,27.75
2023-04-15T05:07:40.425Z,27.39
2023-04-15T05:08:40.577Z,26.24
2023-04-15T05:09:40.557Z,26.95
2023-04-15T05:10:40.574Z,26.52
2023-04-15T05:11:40.627Z,26.51
2023-04-15T05:12:40.692Z,27.90
2023-04-15T05:13:40.743Z,26.37
2023-04-15T05:14:40.815Z,27.08
2023-04-15T05:15:40.850Z,26.47
2023-04-15T05:16:40.900Z,26.84
2023-04-15T05:17:40.967Z,27.75
2023-04-15T05:18:41.064Z,27.06
2023-04-15T05:19:41.042Z,27.23
2023-04-15T05:20:41.089Z,26.73
2023-04-15T05:21:41.129Z,27.16
2023-04-15T05:22:41.177Z,27.93
2023-04-15T05:23:41.199Z,27.84
2023-04-15T05:24:41.282Z,25.97
2023-04-15T05:25:41.326Z,27.06
2023-04-15T05:26:42.731Z,26.39
2023-04-15T05:27:41.407Z,26.66
2023-04-15T05:28:41.496Z,27.47
2023-04-15T05:29:41.516Z,26.92
2023-04-15T05:30:41.582Z,26.41
2023-04-15T05:31:41.688Z,26.96
2023-04-15T05:32:41.754Z,25.75
2023-04-15T05:33:41.723Z,25.73
2023-04-15T05:34:41.807Z,25.00
2023-04-15T05:35:41.825Z,26.27
2023-04-15T05:36:41.897Z,26.66
2023-04-15T05:37:41.935Z,25.59
2023-04-15T05:38:41.954Z,26.41
2023-04-15T05:39:42.039Z,26.08
2023-04-15T05:40:42.096Z,25.38
2023-04-15T05:41:42.107Z,25.14
2023-04-15T05:42:42.209Z,25.00
2023-04-15T05:43:42.219Z,25.99
2023-04-15T05:44:42.268Z,25.77
2023-04-15T05:45:42.344Z,25.00
2023-04-15T05:46:42.469Z,26.15
2023-04-15T05:47:42.474Z,25.23
2023-04-15T05:48:42.472Z,25.83
2023-04-15T05:49:42.532Z,25.53
2023-04-15T05:50:42.559Z,25.59
2023-04-15T05:51:42.620Z,25.56
2023-04-15T05:52:42.664Z,26.19
2023-04-15T05:53:42.677Z,25.71
2023-04-15T05:54:42.762Z,26.88
2023-04-15T05:55:42.786Z,26.06
2023-04-15T05:56:42.849Z,26.33
2023-04-15T05:57:42.890Z,25.31
2023-04-15T05:58:42.962Z,25.38
2023-04-15T05:59:43.024Z,25.57
2023-04-15T06:00:43.070Z,25.73
2023-04-15T06:01:43.107Z,25.60
2023-04-15T06:02:43.273Z,25.55
2023-04-15T06:03:43.304Z,26.36
2023-04-15T06:04:43.300Z,25.56
2023-04-15T06:05:43.283Z,25.57
2023-04-15T06:06:43.340Z,26.25
2023-04-15T06:07:43.399Z,25.43
2023-04-15T06:08:43.460Z,25.00
2023-04-15T06:09:43.508Z,26.16
2023-04-15T06:10:43.520Z,26.02
2023-04-15T06:11:43.601Z,25.00
2023-04-15T06:12:43.625Z,26.16
2023-04-15T06:13:43.689Z,25.07
2023-04-15T06:14:43.738Z,25.15
2023-04-15T06:15:43.803Z,25.75
2023-04-15T06:16:44.084Z,25.95
2023-04-15T06:18:43.907Z,25.53
2023-04-15T06:19:43.979Z,25.00
2023-04-15T06:20:44.019Z,25.80
2023-04-15T06:21:44.083Z,25.04
2023-04-15T06:22:44.112Z,25.56
2023-04-15T06:23:44.174Z,25.36
2023-04-15T06:24:44.242Z,25.68
2023-04-15T06:25:44.291Z,25.00
2023-04-15T06:26:44.344Z,25.97
2023-04-15T06:27:44.412Z,26.54
2023-04-15T06:28:44.441Z,27.11
2023-04-15T06:29:44.501Z,26.17
2023-04-15T06:30:44.568Z,26.05
2023-04-15T06:31:44.689Z,25.23
2023-04-15T06:32:44.696Z,25.78
2023-04-15T06:33:44.714Z,25.00
2023-04-15T06:34:44.768Z,25.18
2023-04-15T06:35:44.792Z,25.72
2023-04-15T06:36:44.869Z,25.79
2023-04-15T06:37:44.908Z,26.99
2023-04-15T06:38:45.003Z,25.37
2023-04-15T06:39:45.039Z,28.83
2023-04-15T06:40:45.098Z,27.82
2023-04-15T06:41:45.118Z,28.74
2023-04-15T06:42:45.179Z,30.09
2023-04-15T06:43:45.209Z,28.50
2023-04-15T06:44:45.260Z,25.83
2023-04-15T06:45:45.285Z,25.00
2023-04-15T06:46:45.310Z,27.46
2023-04-15T06:47:45.523Z,26.12
2023-04-15T06:48:45.418Z,27.51
2023-04-15T06:49:45.461Z,29.34
2023-04-15T06:50:45.500Z,29.85
2023-04-15T06:51:45.512Z,31.85
2023-04-15T06:52:45.569Z,31.87
2023-04-15T06:53:45.624Z,32.23
2023-04-15T06:54:45.638Z,31.52
2023-04-15T06:55:45.701Z,31.87
2023-04-15T06:56:45.742Z,30.88
2023-04-15T06:57:45.804Z,31.72
2023-04-15T06:58:45.819Z,32.45
2023-04-15T06:59:45.838Z,31.77
2023-04-15T07:00:45.905Z,33.24
2023-04-15T07:01:46.014Z,33.62
2023-04-15T07:02:46.002Z,32.88
2023-04-15T07:03:46.017Z,33.79
2023-04-15T07:04:46.063Z,33.00
2023-04-15T07:05:46.053Z,32.64
2023-04-15T07:06:46.143Z,34.24
2023-04-15T07:07:46.134Z,34.31
2023-04-15T07:08:46.164Z,34.55
2023-04-15T07:09:46.233Z,33.22
2023-04-15T07:10:46.232Z,33.32
2023-04-15T07:11:46.266Z,31.33
2023-04-15T07:12:46.339Z,30.15
2023-04-15T07:13:46.366Z,29.91
2023-04-15T07:14:46.395Z,29.55
2023-04-15T07:15:46.418Z,31.69
2023-04-15T07:16:46.595Z,31.22
2023-04-15T07:17:46.490Z,31.27
2023-04-15T07:18:46.535Z,32.14
2023-04-15T07:19:46.562Z,32.55
2023-04-15T07:20:46.603Z,33.41
2023-04-15T07:21:46.665Z,33.87
2023-04-15T07:22:46.687Z,33.49
2023-04-15T07:23:46.723Z,34.20
2023-04-15T07:24:46.790Z,34.75
2023-04-15T07:25:46.804Z,33.90
2023-04-15T07:26:46.869Z,33.94
2023-04-15T07:27:46.930Z,32.83
2023-04-15T07:28:46.978Z,32.46
2023-04-15T07:29:47.002Z,33.97
2023-04-15T07:30:47.066Z,33.60
2023-04-15T07:31:47.133Z,34.32
2023-04-15T07:32:47.211Z,33.65
2023-04-15T07:33:47.178Z,33.43
2023-04-15T07:34:47.191Z,35.12
2023-04-15T07:35:47.253Z,35.88
2023-04-15T07:36:47.300Z,36.33
2023-04-15T07:37:47.358Z,36.69
2023-04-15T07:38:47.345Z,34.81
2023-04-15T07:39:47.407Z,36.38
2023-04-15T07:40:47.440Z,37.03
2023-04-15T07:41:47.503Z,36.90
2023-04-15T07:42:47.521Z,34.63
2023-04-15T07:43:47.601Z,36.12
2023-04-15T07:44:47.663Z,35.87
2023-04-15T07:45:47.716Z,36.08
2023-04-15T07:46:47.733Z,36.38
2023-04-15T07:47:47.808Z,35.80
2023-04-15T07:48:47.795Z,34.13
2023-04-15T07:49:47.814Z,34.21
2023-04-15T07:50:47.882Z,34.84
2023-04-15T07:51:47.927Z,34.32
2023-04-15T07:52:47.953Z,34.49
2023-04-15T07:53:48.000Z,34.81
2023-04-15T07:54:48.033Z,34.75
2023-04-15T07:55:48.083Z,33.94
2023-04-15T07:56:48.093Z,34.38
2023-04-15T07:57:48.143Z,33.72
2023-04-15T07:58:48.309Z,32.81
2023-04-15T07:59:48.250Z,35.20
2023-04-15T08:00:48.292Z,33.85
2023-04-15T08:01:48.429Z,33.46
2023-04-15T08:02:49.205Z,33.86
2023-04-15T08:03:48.465Z,33.84
2023-04-15T08:04:48.625Z,32.18
2023-04-15T08:05:48.507Z,34.65
2023-04-15T08:06:48.508Z,34.38
2023-04-15T08:07:48.589Z,36.52
2023-04-15T08:08:48.590Z,34.91
2023-04-15T08:09:48.672Z,36.21
2023-04-15T08:10:50.263Z,36.71
2023-04-15T08:11:48.685Z,37.86
2023-04-15T08:12:48.683Z,35.21
2023-04-15T08:13:48.649Z,35.03
2023-04-15T08:14:48.682Z,35.77
2023-04-15T08:15:48.632Z,35.51
2023-04-15T08:16:48.656Z,31.25
2023-04-15T08:17:48.666Z,34.30
2023-04-15T08:18:48.689Z,26.99
2023-04-15T08:19:48.623Z,27.18
2023-04-15T08:20:48.629Z,25.00
2023-04-15T08:21:48.592Z,27.04
2023-04-15T08:22:48.614Z,28.05
2023-04-15T08:23:48.608Z,28.49
2023-04-15T08:24:48.618Z,27.61
2023-04-15T08:25:48.561Z,26.97
2023-04-15T08:26:49.394Z,26.94
2023-04-15T08:27:48.585Z,27.73
2023-04-15T08:28:48.571Z,25.00
2023-04-15T08:29:48.558Z,26.08
2023-04-15T08:30:48.561Z,27.90
2023-04-15T08:31:48.607Z,26.76
2023-04-15T08:32:48.606Z,28.18
2023-04-15T08:33:48.512Z,27.43
2023-04-15T08:34:48.513Z,26.78
2023-04-15T08:35:48.522Z,27.66
2023-04-15T08:36:48.485Z,25.93
2023-04-15T08:37:48.540Z,29.65
2023-04-15T08:38:48.504Z,28.50
2023-04-15T08:39:48.494Z,27.56
2023-04-15T08:40:48.476Z,28.64
2023-04-15T08:41:48.485Z,29.77
2023-04-15T08:42:48.477Z,31.66
2023-04-15T08:43:48.446Z,30.98
2023-04-15T08:44:48.454Z,30.54
2023-04-15T08:45:48.462Z,32.42
2023-04-15T08:46:48.487Z,34.43
2023-04-15T08:47:48.458Z,33.54
2023-04-15T08:48:48.408Z,33.35
2023-04-15T08:49:48.426Z,32.40
2023-04-15T08:50:48.415Z,30.57
2023-04-15T08:51:48.430Z,30.72
2023-04-15T08:52:48.400Z,29.50
2023-04-15T08:53:48.426Z,30.44
2023-04-15T08:54:48.416Z,30.02
2023-04-15T08:55:48.394Z,31.75
2023-04-15T08:56:48.372Z,31.00
2023-04-15T08:57:48.381Z,32.83
2023-04-15T08:58:48.340Z,31.64
2023-04-15T08:59:48.331Z,33.66
2023-04-15T09:00:48.364Z,32.53
2023-04-15T09:01:48.413Z,32.93
2023-04-15T09:02:48.417Z,31.84
2023-04-15T09:03:48.522Z,28.62
2023-04-15T09:04:48.303Z,31.15
2023-04-15T09:05:48.337Z,31.06
2023-04-15T09:06:48.338Z,29.15
2023-04-15T09:07:48.341Z,29.65
2023-04-15T09:08:48.334Z,29.07
2023-04-15T09:09:48.362Z,28.45
2023-04-15T09:10:48.384Z,28.08
2023-04-15T09:11:48.385Z,27.65
2023-04-15T09:12:48.403Z,26.27
2023-04-15T09:13:48.425Z,28.19
2023-04-15T09:14:48.468Z,26.79
2023-04-15T09:15:48.463Z,28.82
2023-04-15T09:16:50.434Z,28.67
2023-04-15T09:17:48.538Z,31.18
2023-04-15T09:18:48.550Z,30.03
2023-04-15T09:19:48.585Z,29.35
2023-04-15T09:20:48.577Z,30.65
2023-04-15T09:21:48.623Z,32.78
2023-04-15T09:22:48.638Z,30.03
2023-04-15T09:23:48.676Z,31.62
2023-04-15T09:24:48.670Z,30.89
2023-04-15T09:25:48.680Z,29.98
2023-04-15T09:26:48.724Z,29.73
2023-04-15T09:27:48.744Z,31.30
2023-04-15T09:28:48.757Z,29.06
2023-04-15T09:29:48.823Z,28.85
2023-04-15T09:30:49.894Z,28.23
2023-04-15T09:31:48.793Z,30.46
2023-04-15T09:32:48.887Z,32.17
2023-04-15T09:33:48.849Z,33.41
2023-04-15T09:34:48.881Z,33.52
2023-04-15T09:35:48.898Z,29.68
2023-04-15T09:36:50.953Z,31.96
2023-04-15T09:37:48.954Z,31.62
2023-04-15T09:38:48.964Z,28.89
2023-04-15T09:39:49.073Z,31.98
2023-04-15T09:40:49.014Z,34.63
2023-04-15T09:41:48.996Z,35.85
2023-04-15T09:42:50.309Z,32.86
2023-04-15T09:43:49.041Z,30.84
2023-04-15T09:44:49.081Z,33.27
2023-04-15T09:45:49.139Z,34.36
2023-04-15T09:46:49.112Z,34.93
2023-04-15T09:47:49.134Z,35.49
2023-04-15T09:48:49.138Z,37.12
2023-04-15T09:49:49.226Z,34.93
2023-04-15T09:50:49.258Z,38.85
2023-04-15T09:52:01.343Z,35.12
2023-04-15T09:52:50.217Z,35.29
2023-04-15T09:53:49.224Z,35.43
2023-04-15T09:54:49.232Z,34.88
2023-04-15T09:55:49.205Z,34.06
2023-04-15T09:56:49.180Z,35.39
2023-04-15T09:57:49.247Z,36.99
2023-04-15T09:58:49.183Z,36.40
2023-04-15T09:59:49.137Z,41.39
2023-04-15T10:00:49.182Z,38.39
2023-04-15T10:01:49.253Z,41.84
2023-04-15T10:02:49.284Z,41.94
2023-04-15T10:03:49.256Z,39.15
2023-04-15T10:04:49.138Z,39.62
2023-04-15T10:05:49.130Z,39.56
2023-04-15T10:06:49.104Z,38.66
2023-04-15T10:07:49.149Z,39.10
2023-04-15T10:08:49.126Z,42.77
2023-04-15T10:09:49.112Z,42.44
2023-04-15T10:10:49.102Z,41.11
2023-04-15T10:11:49.071Z,41.67
2023-04-15T10:12:49.164Z,42.52
2023-04-15T10:13:49.084Z,40.05
2023-04-15T10:14:49.103Z,41.25
2023-04-15T10:15:49.135Z,44.22
2023-04-15T10:16:49.171Z,44.12
2023-04-15T10:17:49.113Z,43.80
2023-04-15T10:18:49.052Z,46.14
2023-04-15T10:19:49.067Z,44.74
2023-04-15T10:20:49.084Z,42.87
2023-04-15T10:21:49.061Z,44.31
2023-04-15T10:22:49.067Z,42.43
2023-04-15T10:23:49.079Z,43.76
2023-04-15T10:24:49.103Z,46.12
2023-04-15T10:25:49.099Z,43.76
2023-04-15T10:26:49.102Z,46.25
2023-04-15T10:27:49.140Z,46.80
2023-04-15T10:28:50.693Z,46.68
2023-04-15T10:29:49.142Z,46.35
2023-04-15T10:30:49.177Z,46.52
2023-04-15T10:31:49.182Z,47.87
2023-04-15T10:32:49.236Z,43.75
2023-04-15T10:33:49.198Z,46.65
2023-04-15T10:34:49.184Z,46.47
2023-04-15T10:35:49.184Z,47.63
2023-04-15T10:36:49.205Z,43.22
2023-04-15T10:37:49.195Z,41.45
2023-04-15T10:38:49.231Z,43.99
2023-04-15T10:39:49.245Z,43.89
2023-04-15T10:40:49.226Z,46.74
2023-04-15T10:41:49.243Z,45.76
2023-04-15T10:42:49.268Z,45.28
2023-04-15T10:43:49.273Z,46.37
2023-04-15T10:44:49.240Z,44.83
2023-04-15T10:45:49.289Z,45.35
2023-04-15T10:46:49.294Z,46.31
2023-04-15T10:47:49.280Z,45.35
2023-04-15T10:48:49.326Z,48.48
2023-04-15T10:49:49.294Z,47.81
2023-04-15T10:50:49.302Z,45.61
2023-04-15T10:51:49.279Z,49.36
2023-04-15T10:52:49.305Z,49.15
2023-04-15T10:53:49.277Z,49.48
2023-04-15T10:54:49.275Z,49.35
2023-04-15T10:55:49.268Z,48.86
2023-04-15T10:56:49.269Z,46.83
2023-04-15T10:57:49.278Z,49.94
2023-04-15T10:58:49.332Z,50.31
2023-04-15T10:59:49.293Z,50.20
2023-04-15T11:00:49.332Z,50.19
2023-04-15T11:01:49.401Z,50.40
2023-04-15T11:02:49.402Z,51.65
2023-04-15T11:03:49.532Z,53.21
2023-04-15T11:04:49.388Z,53.71
2023-04-15T11:05:49.337Z,53.17
2023-04-15T11:06:49.353Z,53.28
2023-04-15T11:07:49.326Z,52.34
2023-04-15T11:08:49.337Z,53.80
2023-04-15T11:09:49.374Z,54.04
2023-04-15T11:10:49.367Z,50.63
2023-04-15T11:11:49.362Z,52.10
2023-04-15T11:12:49.355Z,53.43
2023-04-15T11:13:49.398Z,53.37
2023-04-15T11:14:49.401Z,52.60
2023-04-15T11:15:49.398Z,50.91
2023-04-15T11:16:49.467Z,51.73
2023-04-15T11:17:49.435Z,52.47
2023-04-15T11:18:49.397Z,49.56
2023-04-15T11:19:49.428Z,51.56
2023-04-15T11:20:49.406Z,52.54
2023-04-15T11:21:49.389Z,52.54
2023-04-15T11:22:49.423Z,50.22
2023-04-15T11:23:49.412Z,49.80
2023-04-15T11:24:49.413Z,51.53
2023-04-15T11:25:49.417Z,52.06
2023-04-15T11:26:49.404Z,51.46
2023-04-15T11:27:49.413Z,49.98
2023-04-15T11:28:49.391Z,54.35
2023-04-15T11:29:49.589Z,56.20
2023-04-15T11:30:49.373Z,56.40
2023-04-15T11:31:49.396Z,54.25
2023-04-15T11:32:49.437Z,54.32
2023-04-15T11:33:49.427Z,56.11
2023-04-15T11:34:49.435Z,55.43
2023-04-15T11:35:49.396Z,55.48
2023-04-15T11:36:49.420Z,56.08
2023-04-15T11:37:49.455Z,55.43
2023-04-15T11:38:49.411Z,55.89
2023-04-15T11:39:49.449Z,52.69
2023-04-15T11:40:49.442Z,53.98
2023-04-15T11:41:49.491Z,53.72
2023-04-15T11:42:50.149Z,54.72
2023-04-15T11:43:49.464Z,54.87
2023-04-15T11:44:49.458Z,58.39
2023-04-15T11:45:49.524Z,57.29
2023-04-15T11:46:49.463Z,56.48
2023-04-15T11:47:49.510Z,56.68
2023-04-15T11:48:49.467Z,57.22
2023-04-15T11:49:49.479Z,57.99
2023-04-15T11:50:49.489Z,56.97
2023-04-15T11:51:49.447Z,58.66
2023-04-15T11:52:49.468Z,58.70
2023-04-15T11:53:49.455Z,59.29
2023-04-15T11:56:08.074Z,25.00
2023-04-15T11:57:08.067Z,25.00
2023-04-15T11:58:08.069Z,25.00
2023-04-15T11:59:08.098Z,25.00
2023-04-15T12:00:08.052Z,25.00
2023-04-15T12:01:08.058Z,25.10
2023-04-15T12:02:08.106Z,25.00
2023-04-15T12:03:08.164Z,27.06
2023-04-15T12:04:08.349Z,29.01
2023-04-15T12:05:08.083Z,26.11
2023-04-15T12:06:08.011Z,26.59
2023-04-15T12:07:07.990Z,27.62
2023-04-15T12:08:08.003Z,26.56
2023-04-15T12:09:07.990Z,29.87
2023-04-15T12:10:07.989Z,29.32
2023-04-15T12:11:07.972Z,30.69
2023-04-15T12:12:07.964Z,29.34
2023-04-15T12:13:07.960Z,35.18
2023-04-15T12:14:07.936Z,32.54
2023-04-15T12:15:07.940Z,30.81
2023-04-15T12:16:07.940Z,32.59
2023-04-15T12:17:07.931Z,34.35
2023-04-15T12:18:07.953Z,28.09
2023-04-15T12:19:07.926Z,31.88
2023-04-15T12:20:07.921Z,28.59
2023-04-15T12:21:07.890Z,35.66
2023-04-15T12:22:07.907Z,33.69
2023-04-15T12:23:07.874Z,32.96
2023-04-15T12:24:07.900Z,31.26
2023-04-15T12:25:07.861Z,37.34
2023-04-15T12:26:07.883Z,38.78
2023-04-15T12:27:07.927Z,40.75
2023-04-15T12:28:07.841Z,37.03
2023-04-15T12:29:07.866Z,40.69
2023-04-15T12:30:07.860Z,36.57
2023-04-15T12:31:07.886Z,39.08
2023-04-15T12:32:07.866Z,36.61
2023-04-15T12:33:07.924Z,37.48
2023-04-15T12:34:07.972Z,35.69
2023-04-15T12:35:08.004Z,35.42
2023-04-15T12:36:08.103Z,38.03
2023-04-15T12:37:08.138Z,35.86
2023-04-15T12:38:08.194Z,33.22
2023-04-15T12:39:08.241Z,37.48
2023-04-15T12:40:08.364Z,34.72
2023-04-15T12:41:08.345Z,31.20
2023-04-15T12:42:08.445Z,33.45
2023-04-15T12:43:08.472Z,37.67
2023-04-15T12:44:08.547Z,36.00
2023-04-15T12:45:08.594Z,35.60
2023-04-15T12:46:08.768Z,35.80
2023-04-15T12:47:08.725Z,34.64
2023-04-15T12:48:08.850Z,32.36
2023-04-15T12:49:08.881Z,36.97
2023-04-15T12:50:08.942Z,36.73
2023-04-15T12:51:08.968Z,38.45
2023-04-15T12:52:08.968Z,38.65
2023-04-15T12:53:08.948Z,38.74
2023-04-15T12:54:08.950Z,39.61
2023-04-15T12:55:08.949Z,38.55